Estación meteorológica de Montseny - Vallcàrquera (Vallès Oriental, Parc Natural del Montseny)

Consulta los datos en tiempo real de la estación meteorológica de Montseny - Vallcàrquera





Hora UTC 08:15
Temperatura 15.8 ºC
Humedad 72.2 %
Pluja 0.0 mm
Velocidad viento 4.7 km/h
Dirección viento SSW
Radiación solar 448.6 W/m²

Datos diarios 2026-05-09



Hora UTC (invierno +1h; verano +2h)
Temperatura (ºC) Humedad (%) Velocidad viento (km/h) Precipitación (mm) Radiación solar (W/m²)
Hora UTC Aire Humedad Vel. Dir. Vel. Max Dir. Intent. máx 5 min. Rad. Sol.
00:05 10.9 90.1 0.0 NNE 0.0 ENE 0.0 0.0
00:10 10.9 89.7 0.0 NNE 0.0 ENE 0.0 0.2
00:15 11.0 89.9 0.1 ENE 2.5 ENE 0.0 0.0
00:20 11.0 90.0 1.2 NE 2.5 ENE 0.0 0.1
00:25 11.0 89.8 0.1 SSE 1.8 SSE 0.0 0.1
00:30 11.1 90.1 0.9 NNE 2.1 N 0.0 0.1
00:35 11.2 89.8 0.0 NNE 0.4 NNE 0.0 0.0
00:40 11.2 89.6 0.5 N 2.1 N 0.0 0.1
00:45 11.3 88.9 0.7 N 2.5 N 0.0 0.4
00:50 11.3 89.4 0.1 SW 1.8 SW 0.0 0.0
00:55 11.2 89.6 0.0 NNE 0.0 WSW 0.0 0.0
01:00 11.2 90.0 0.3 NNW 1.4 NNW 0.0 0.0
01:05 11.2 89.8 0.7 NNW 2.8 SSW 0.0 0.0
01:10 11.2 90.4 0.3 ESE 1.4 E 0.0 0.0
01:15 11.1 90.9 1.0 E 2.1 E 0.0 0.0
01:20 11.1 90.7 1.5 NE 3.9 ENE 0.0 0.0
01:25 11.2 90.2 0.3 NNE 2.1 N 0.0 0.0
01:30 11.2 90.1 0.0 NNE 0.0 NNE 0.0 0.0
01:35 11.2 90.3 1.8 N 2.5 N 0.0 0.0
01:40 11.1 90.1 1.2 SW 3.9 SSW 0.0 0.0
01:45 10.9 90.1 0.1 SSE 2.1 SSE 0.0 0.0
01:50 10.8 90.4 0.6 N 1.8 N 0.0 0.0
01:55 10.8 90.5 0.3 N 1.4 N 0.0 0.0
02:00 10.8 90.8 1.9 ENE 4.2 ENE 0.0 0.0
02:05 10.7 91.5 0.2 NNE 1.8 ENE 0.0 0.0
02:10 10.7 91.3 0.8 N 2.1 N 0.0 0.0
02:15 10.7 91.5 0.7 N 1.8 N 0.0 0.0
02:20 10.6 91.4 0.0 NNE 0.0 N 0.0 0.0
02:25 10.5 91.9 1.3 NNW 2.8 NNW 0.0 0.0
02:30 10.3 92.2 1.4 NNW 2.1 NNW 0.0 0.0
02:35 10.2 92.3 0.4 NNE 1.8 NNE 0.0 0.0
02:40 10.2 92.7 1.1 NNW 1.8 NNW 0.0 0.0
02:45 10.0 92.6 0.4 NNW 1.4 NNW 0.0 0.0
02:50 9.9 93.2 1.3 N 2.5 N 0.0 0.0
02:55 9.9 93.4 0.7 NE 1.8 NE 0.0 0.0
03:00 9.8 93.7 1.2 N 2.1 N 0.0 0.0
03:05 9.8 93.8 0.2 N 1.4 N 0.0 0.0
03:10 9.8 93.9 0.6 N 1.8 N 0.0 0.0
03:15 9.9 94.0 0.2 NNE 1.1 N 0.0 0.1
03:20 10.0 94.1 0.7 NE 1.8 NE 0.0 0.1
03:25 10.1 94.1 0.4 NNE 1.8 NE 0.0 0.3
03:30 10.3 93.6 1.5 ENE 3.5 ENE 0.0 0.1
03:35 10.4 92.7 0.0 NNE 0.0 NE 0.0 0.0
03:40 10.4 92.8 0.2 N 1.4 N 0.0 0.0
03:45 10.4 93.0 0.4 N 1.4 N 0.0 0.0
03:50 10.5 93.1 0.7 ENE 3.2 ENE 0.0 0.0
03:55 10.5 92.7 1.3 ENE 2.5 NE 0.0 0.0
04:00 10.5 92.1 0.5 NNE 1.4 ENE 0.0 0.3
04:05 10.6 92.1 0.0 NNW 0.7 NNW 0.0 0.1
04:10 10.6 92.5 0.0 NNE 0.0 NNW 0.0 0.0
04:15 10.6 92.7 0.8 NE 2.1 NE 0.0 0.0
04:20 10.6 92.4 2.0 NE 3.2 ENE 0.0 0.0
04:25 10.6 91.7 0.8 NE 2.8 ENE 0.0 0.3
04:30 10.6 91.1 0.6 N 2.5 N 0.0 1.3
04:35 10.6 91.4 0.0 NNE 0.0 N 0.0 0.7
04:40 10.6 91.9 0.3 ENE 1.4 ENE 0.0 0.8
04:45 10.5 91.6 0.5 ENE 2.1 ENE 0.0 1.8
04:50 10.6 91.4 0.3 NNW 1.4 NNW 0.0 3.2
04:55 10.6 91.3 0.3 NE 2.8 ENE 0.0 5.3
05:00 10.6 91.7 1.5 ENE 2.8 ENE 0.0 8.0
05:05 10.7 91.1 0.5 NE 2.1 NE 0.0 11.2
05:10 10.8 91.3 0.2 ENE 2.1 ENE 0.0 14.2
05:15 10.8 91.1 1.3 E 3.9 E 0.0 15.8
05:20 10.9 90.3 1.2 NE 2.5 NE 0.0 15.4
05:25 11.0 90.4 0.2 NE 2.1 ENE 0.0 18.0
05:30 11.1 90.3 2.0 ENE 3.9 ESE 0.0 19.5
05:35 11.1 90.0 0.4 ENE 2.5 ENE 0.0 19.3
05:40 11.2 90.6 0.0 NNE 0.0 ENE 0.0 21.8
05:45 11.3 90.4 0.0 NNE 0.0 E 0.0 26.3
05:50 11.4 90.6 0.0 N 0.4 N 0.0 36.3
05:55 11.6 90.9 0.0 NNE 0.0 N 0.0 71.1
06:00 11.7 90.9 1.1 ENE 2.1 E 0.0 85.8
06:05 11.7 89.8 0.6 ENE 2.5 ENE 0.0 93.7
06:10 11.8 88.7 0.6 NE 2.5 NE 0.0 102.5
06:15 12.0 88.4 0.1 SE 1.4 SSE 0.0 103.9
06:20 12.3 88.4 0.9 E 2.5 ENE 0.0 103.9
06:25 12.4 85.4 0.4 NE 1.8 NNE 0.0 105.5
06:30 12.6 84.0 0.9 E 3.2 ENE 0.0 120.0
06:35 12.7 82.1 1.1 ENE 2.8 ESE 0.0 137.6
06:40 13.0 81.8 0.5 SSE 1.8 SE 0.0 187.5
06:45 13.3 80.8 0.1 S 1.1 S 0.0 195.9
06:50 13.5 79.4 1.0 S 2.5 SSW 0.0 206.7
06:55 13.5 80.7 1.6 S 3.5 S 0.0 196.8
07:00 13.7 79.3 1.6 SSW 3.5 WNW 0.0 219.9
07:05 13.8 77.9 1.9 SW 3.9 SSW 0.0 228.7
07:10 14.0 77.8 1.7 SSW 5.3 SSW 0.0 242.3
07:15 14.1 77.3 1.8 SW 5.6 S 0.0 250.8
07:20 14.3 77.5 1.8 SSW 5.3 SSW 0.0 262.5
07:25 14.5 76.6 3.4 SSW 6.7 S 0.0 291.7
07:30 14.5 76.7 2.1 SSW 6.4 SSW 0.0 289.9
07:35 14.8 76.2 1.2 SW 4.2 SSW 0.0 309.5
07:40 14.8 75.6 3.0 SSW 6.4 SSW 0.0 337.8
07:45 15.0 75.8 2.1 SSW 6.0 SSW 0.0 375.9
07:50 15.3 74.6 2.4 SSW 6.0 S 0.0 369.1
07:55 15.3 74.1 3.4 SW 7.4 SSW 0.0 359.9
08:00 15.4 73.5 3.9 SSW 9.5 SSW 0.0 441.8
08:05 15.6 72.9 4.1 SSW 9.9 SSW 0.0 436.7
08:10 15.7 72.1 4.4 SSW 9.2 SW 0.0 454.5
08:15 15.8 72.2 4.7 SSW 10.9 SSW 0.0 448.6
Máxima 15.8 94.1 4.7 SSW 10.9 SSW 0.0 454.5
Mínima 9.8 72.1
Total 0.0